sensor_id;sensor_type;location;lat;lon;timestamp;P1;durP1;ratioP1;P2;durP2;ratioP2
50483;SDS011;36409;52.168;20.878;2023-03-23T00:00:23;46.70;;;29.67;;
50483;SDS011;36409;52.168;20.878;2023-03-23T00:03:11;43.30;;;27.87;;
50483;SDS011;36409;52.168;20.878;2023-03-23T00:05:41;46.40;;;28.30;;
50483;SDS011;36409;52.168;20.878;2023-03-23T00:08:17;49.03;;;31.27;;
50483;SDS011;36409;52.168;20.878;2023-03-23T00:10:50;46.63;;;27.80;;
50483;SDS011;36409;52.168;20.878;2023-03-23T00:13:23;45.70;;;27.07;;
50483;SDS011;36409;52.168;20.878;2023-03-23T00:15:53;44.07;;;27.37;;
50483;SDS011;36409;52.168;20.878;2023-03-23T00:18:24;48.80;;;27.47;;
50483;SDS011;36409;52.168;20.878;2023-03-23T00:20:53;46.77;;;25.77;;
50483;SDS011;36409;52.168;20.878;2023-03-23T00:23:25;41.30;;;25.70;;
50483;SDS011;36409;52.168;20.878;2023-03-23T00:25:55;42.57;;;26.07;;
50483;SDS011;36409;52.168;20.878;2023-03-23T00:28:24;39.87;;;25.23;;
50483;SDS011;36409;52.168;20.878;2023-03-23T00:30:55;41.73;;;27.17;;
50483;SDS011;36409;52.168;20.878;2023-03-23T00:33:25;44.20;;;27.15;;
50483;SDS011;36409;52.168;20.878;2023-03-23T00:35:57;40.53;;;25.60;;
50483;SDS011;36409;52.168;20.878;2023-03-23T00:38:25;42.80;;;25.53;;
50483;SDS011;36409;52.168;20.878;2023-03-23T00:40:54;39.90;;;24.73;;
50483;SDS011;36409;52.168;20.878;2023-03-23T00:43:24;38.90;;;23.30;;
50483;SDS011;36409;52.168;20.878;2023-03-23T00:45:55;39.30;;;23.93;;
50483;SDS011;36409;52.168;20.878;2023-03-23T00:48:30;38.75;;;24.45;;
50483;SDS011;36409;52.168;20.878;2023-03-23T00:50:59;39.17;;;24.13;;
50483;SDS011;36409;52.168;20.878;2023-03-23T00:53:28;44.70;;;25.50;;
50483;SDS011;36409;52.168;20.878;2023-03-23T00:55:57;39.40;;;24.73;;
50483;SDS011;36409;52.168;20.878;2023-03-23T00:58:26;43.60;;;24.00;;
50483;SDS011;36409;52.168;20.878;2023-03-23T01:00:55;36.87;;;22.77;;
50483;SDS011;36409;52.168;20.878;2023-03-23T01:03:25;38.03;;;23.47;;
50483;SDS011;36409;52.168;20.878;2023-03-23T01:05:55;37.85;;;23.05;;
50483;SDS011;36409;52.168;20.878;2023-03-23T01:08:24;35.90;;;22.70;;
50483;SDS011;36409;52.168;20.878;2023-03-23T01:11:01;35.70;;;21.80;;
50483;SDS011;36409;52.168;20.878;2023-03-23T01:13:32;37.45;;;23.05;;
50483;SDS011;36409;52.168;20.878;2023-03-23T01:16:01;35.40;;;21.33;;
50483;SDS011;36409;52.168;20.878;2023-03-23T01:18:30;38.47;;;22.70;;
50483;SDS011;36409;52.168;20.878;2023-03-23T01:21:03;38.33;;;23.00;;
50483;SDS011;36409;52.168;20.878;2023-03-23T01:23:33;33.77;;;21.20;;
50483;SDS011;36409;52.168;20.878;2023-03-23T01:26:03;40.67;;;23.17;;
50483;SDS011;36409;52.168;20.878;2023-03-23T01:28:33;31.03;;;20.80;;
50483;SDS011;36409;52.168;20.878;2023-03-23T01:31:03;37.07;;;22.20;;
50483;SDS011;36409;52.168;20.878;2023-03-23T01:33:34;34.37;;;21.43;;
50483;SDS011;36409;52.168;20.878;2023-03-23T01:36:04;33.50;;;21.13;;
50483;SDS011;36409;52.168;20.878;2023-03-23T01:38:34;36.77;;;21.83;;
50483;SDS011;36409;52.168;20.878;2023-03-23T01:41:04;30.30;;;20.00;;
50483;SDS011;36409;52.168;20.878;2023-03-23T01:43:33;33.40;;;20.13;;
50483;SDS011;36409;52.168;20.878;2023-03-23T01:46:01;36.70;;;19.30;;
50483;SDS011;36409;52.168;20.878;2023-03-23T01:48:30;32.70;;;19.80;;
50483;SDS011;36409;52.168;20.878;2023-03-23T01:51:02;33.50;;;21.33;;
50483;SDS011;36409;52.168;20.878;2023-03-23T01:53:36;31.80;;;19.93;;
50483;SDS011;36409;52.168;20.878;2023-03-23T01:56:08;33.87;;;20.00;;
50483;SDS011;36409;52.168;20.878;2023-03-23T01:58:42;30.00;;;18.70;;
50483;SDS011;36409;52.168;20.878;2023-03-23T02:01:13;32.70;;;19.90;;
50483;SDS011;36409;52.168;20.878;2023-03-23T02:03:45;35.37;;;20.03;;
50483;SDS011;36409;52.168;20.878;2023-03-23T02:06:15;30.60;;;19.67;;
50483;SDS011;36409;52.168;20.878;2023-03-23T02:09:10;31.03;;;19.27;;
50483;SDS011;36409;52.168;20.878;2023-03-23T02:11:41;28.33;;;18.20;;
50483;SDS011;36409;52.168;20.878;2023-03-23T02:14:11;31.90;;;19.30;;
50483;SDS011;36409;52.168;20.878;2023-03-23T02:16:43;30.43;;;18.97;;
50483;SDS011;36409;52.168;20.878;2023-03-23T02:19:22;31.20;;;19.73;;
50483;SDS011;36409;52.168;20.878;2023-03-23T02:22:15;32.70;;;19.17;;
50483;SDS011;36409;52.168;20.878;2023-03-23T02:28:10;34.30;;;20.97;;
50483;SDS011;36409;52.168;20.878;2023-03-23T02:31:05;33.57;;;20.60;;
50483;SDS011;36409;52.168;20.878;2023-03-23T02:33:46;34.57;;;20.67;;
50483;SDS011;36409;52.168;20.878;2023-03-23T02:36:25;35.20;;;19.87;;
50483;SDS011;36409;52.168;20.878;2023-03-23T02:39:03;32.07;;;19.63;;
50483;SDS011;36409;52.168;20.878;2023-03-23T02:41:38;29.47;;;18.03;;
50483;SDS011;36409;52.168;20.878;2023-03-23T02:44:11;30.20;;;18.37;;
50483;SDS011;36409;52.168;20.878;2023-03-23T02:46:49;30.08;;;18.10;;
50483;SDS011;36409;52.168;20.878;2023-03-23T02:49:19;29.47;;;17.83;;
50483;SDS011;36409;52.168;20.878;2023-03-23T02:51:51;29.05;;;17.85;;
50483;SDS011;36409;52.168;20.878;2023-03-23T02:54:23;27.50;;;17.00;;
50483;SDS011;36409;52.168;20.878;2023-03-23T02:56:55;31.23;;;16.70;;
50483;SDS011;36409;52.168;20.878;2023-03-23T02:59:30;28.13;;;17.03;;
50483;SDS011;36409;52.168;20.878;2023-03-23T03:02:01;27.80;;;16.90;;
50483;SDS011;36409;52.168;20.878;2023-03-23T03:04:34;27.10;;;16.63;;
50483;SDS011;36409;52.168;20.878;2023-03-23T03:07:17;25.93;;;16.07;;
50483;SDS011;36409;52.168;20.878;2023-03-23T03:09:59;24.63;;;14.90;;
50483;SDS011;36409;52.168;20.878;2023-03-23T03:12:34;23.77;;;15.68;;
50483;SDS011;36409;52.168;20.878;2023-03-23T03:15:13;28.73;;;15.67;;
50483;SDS011;36409;52.168;20.878;2023-03-23T03:17:57;25.97;;;16.13;;
50483;SDS011;36409;52.168;20.878;2023-03-23T03:20:32;28.07;;;15.93;;
50483;SDS011;36409;52.168;20.878;2023-03-23T03:23:05;27.70;;;16.27;;
50483;SDS011;36409;52.168;20.878;2023-03-23T03:25:36;27.40;;;16.53;;
50483;SDS011;36409;52.168;20.878;2023-03-23T03:28:07;26.77;;;15.00;;
50483;SDS011;36409;52.168;20.878;2023-03-23T03:30:43;25.40;;;14.53;;
50483;SDS011;36409;52.168;20.878;2023-03-23T03:33:15;28.53;;;16.20;;
50483;SDS011;36409;52.168;20.878;2023-03-23T03:35:44;23.40;;;14.17;;
50483;SDS011;36409;52.168;20.878;2023-03-23T03:38:16;24.10;;;15.17;;
50483;SDS011;36409;52.168;20.878;2023-03-23T03:40:44;24.60;;;15.00;;
50483;SDS011;36409;52.168;20.878;2023-03-23T03:43:13;24.93;;;15.27;;
50483;SDS011;36409;52.168;20.878;2023-03-23T03:45:44;29.23;;;15.50;;
50483;SDS011;36409;52.168;20.878;2023-03-23T03:48:12;25.93;;;15.07;;
50483;SDS011;36409;52.168;20.878;2023-03-23T03:50:42;24.97;;;16.20;;
50483;SDS011;36409;52.168;20.878;2023-03-23T03:53:12;29.37;;;15.83;;
50483;SDS011;36409;52.168;20.878;2023-03-23T03:55:43;27.87;;;14.43;;
50483;SDS011;36409;52.168;20.878;2023-03-23T03:58:15;27.17;;;15.57;;
50483;SDS011;36409;52.168;20.878;2023-03-23T04:01:02;27.27;;;15.47;;
50483;SDS011;36409;52.168;20.878;2023-03-23T04:03:35;24.60;;;15.73;;
50483;SDS011;36409;52.168;20.878;2023-03-23T04:06:26;27.60;;;15.03;;
50483;SDS011;36409;52.168;20.878;2023-03-23T04:08:57;32.23;;;16.33;;
50483;SDS011;36409;52.168;20.878;2023-03-23T04:11:28;28.30;;;16.23;;
50483;SDS011;36409;52.168;20.878;2023-03-23T04:14:10;25.53;;;15.13;;
50483;SDS011;36409;52.168;20.878;2023-03-23T04:16:44;23.47;;;14.70;;
50483;SDS011;36409;52.168;20.878;2023-03-23T04:19:12;26.03;;;14.90;;
50483;SDS011;36409;52.168;20.878;2023-03-23T04:21:42;23.30;;;14.37;;
50483;SDS011;36409;52.168;20.878;2023-03-23T04:24:12;28.20;;;15.73;;
50483;SDS011;36409;52.168;20.878;2023-03-23T04:26:42;23.13;;;13.60;;
50483;SDS011;36409;52.168;20.878;2023-03-23T04:29:20;24.70;;;14.40;;
50483;SDS011;36409;52.168;20.878;2023-03-23T04:32:09;21.00;;;13.17;;
50483;SDS011;36409;52.168;20.878;2023-03-23T04:34:42;21.43;;;13.00;;
50483;SDS011;36409;52.168;20.878;2023-03-23T04:37:12;23.43;;;15.00;;
50483;SDS011;36409;52.168;20.878;2023-03-23T04:39:42;23.63;;;14.33;;
50483;SDS011;36409;52.168;20.878;2023-03-23T04:42:14;22.40;;;14.20;;
50483;SDS011;36409;52.168;20.878;2023-03-23T04:45:16;27.53;;;13.93;;
50483;SDS011;36409;52.168;20.878;2023-03-23T04:48:08;20.63;;;13.30;;
50483;SDS011;36409;52.168;20.878;2023-03-23T04:50:47;21.23;;;13.53;;
50483;SDS011;36409;52.168;20.878;2023-03-23T04:53:23;26.00;;;14.07;;
50483;SDS011;36409;52.168;20.878;2023-03-23T04:55:52;27.73;;;15.50;;
50483;SDS011;36409;52.168;20.878;2023-03-23T04:58:21;23.80;;;14.70;;
50483;SDS011;36409;52.168;20.878;2023-03-23T05:01:15;29.90;;;15.10;;
50483;SDS011;36409;52.168;20.878;2023-03-23T05:04:08;24.73;;;14.07;;
50483;SDS011;36409;52.168;20.878;2023-03-23T05:06:38;24.67;;;15.03;;
50483;SDS011;36409;52.168;20.878;2023-03-23T05:09:12;27.02;;;15.32;;
50483;SDS011;36409;52.168;20.878;2023-03-23T05:11:42;28.33;;;16.50;;
50483;SDS011;36409;52.168;20.878;2023-03-23T05:14:11;26.00;;;16.85;;
50483;SDS011;36409;52.168;20.878;2023-03-23T05:16:45;26.10;;;16.13;;
50483;SDS011;36409;52.168;20.878;2023-03-23T05:19:18;27.00;;;16.07;;
50483;SDS011;36409;52.168;20.878;2023-03-23T05:21:48;27.60;;;16.30;;
50483;SDS011;36409;52.168;20.878;2023-03-23T05:24:16;27.73;;;15.90;;
50483;SDS011;36409;52.168;20.878;2023-03-23T05:26:46;27.13;;;15.73;;
50483;SDS011;36409;52.168;20.878;2023-03-23T05:29:24;26.17;;;16.60;;
50483;SDS011;36409;52.168;20.878;2023-03-23T05:31:59;26.03;;;15.77;;
50483;SDS011;36409;52.168;20.878;2023-03-23T05:34:29;23.80;;;16.37;;
50483;SDS011;36409;52.168;20.878;2023-03-23T05:37:01;25.30;;;15.40;;
50483;SDS011;36409;52.168;20.878;2023-03-23T05:39:42;25.13;;;15.30;;
50483;SDS011;36409;52.168;20.878;2023-03-23T05:42:34;23.87;;;15.27;;
50483;SDS011;36409;52.168;20.878;2023-03-23T05:45:13;26.10;;;15.20;;
50483;SDS011;36409;52.168;20.878;2023-03-23T05:47:44;27.60;;;14.67;;
50483;SDS011;36409;52.168;20.878;2023-03-23T05:50:17;24.67;;;13.67;;
50483;SDS011;36409;52.168;20.878;2023-03-23T05:52:46;29.67;;;15.73;;
50483;SDS011;36409;52.168;20.878;2023-03-23T05:55:16;21.60;;;13.53;;
50483;SDS011;36409;52.168;20.878;2023-03-23T05:57:50;22.53;;;13.87;;
50483;SDS011;36409;52.168;20.878;2023-03-23T06:00:34;24.60;;;13.03;;
50483;SDS011;36409;52.168;20.878;2023-03-23T06:03:10;23.93;;;13.57;;
50483;SDS011;36409;52.168;20.878;2023-03-23T06:05:57;22.23;;;12.77;;
50483;SDS011;36409;52.168;20.878;2023-03-23T06:08:35;22.20;;;13.47;;
50483;SDS011;36409;52.168;20.878;2023-03-23T06:11:04;23.90;;;13.95;;
50483;SDS011;36409;52.168;20.878;2023-03-23T06:13:37;21.00;;;12.70;;
50483;SDS011;36409;52.168;20.878;2023-03-23T06:16:09;21.57;;;13.33;;
50483;SDS011;36409;52.168;20.878;2023-03-23T06:18:58;23.63;;;12.43;;
50483;SDS011;36409;52.168;20.878;2023-03-23T06:21:33;23.63;;;12.53;;
50483;SDS011;36409;52.168;20.878;2023-03-23T06:24:14;22.23;;;11.60;;
50483;SDS011;36409;52.168;20.878;2023-03-23T06:26:44;21.80;;;11.23;;
50483;SDS011;36409;52.168;20.878;2023-03-23T06:29:16;22.60;;;11.97;;
50483;SDS011;36409;52.168;20.878;2023-03-23T06:31:58;21.10;;;12.10;;
50483;SDS011;36409;52.168;20.878;2023-03-23T06:34:31;22.63;;;11.53;;
50483;SDS011;36409;52.168;20.878;2023-03-23T06:37:52;21.10;;;10.70;;
50483;SDS011;36409;52.168;20.878;2023-03-23T06:40:47;18.13;;;11.03;;
50483;SDS011;36409;52.168;20.878;2023-03-23T06:43:16;19.77;;;10.73;;
50483;SDS011;36409;52.168;20.878;2023-03-23T06:46:12;23.03;;;10.50;;
50483;SDS011;36409;52.168;20.878;2023-03-23T06:48:42;18.17;;;9.80;;
50483;SDS011;36409;52.168;20.878;2023-03-23T06:51:14;16.77;;;10.03;;
50483;SDS011;36409;52.168;20.878;2023-03-23T06:53:48;18.20;;;10.27;;
50483;SDS011;36409;52.168;20.878;2023-03-23T06:56:17;18.73;;;9.77;;
50483;SDS011;36409;52.168;20.878;2023-03-23T06:58:50;18.13;;;10.40;;
50483;SDS011;36409;52.168;20.878;2023-03-23T07:01:18;16.90;;;9.83;;
50483;SDS011;36409;52.168;20.878;2023-03-23T07:03:56;17.55;;;9.60;;
50483;SDS011;36409;52.168;20.878;2023-03-23T07:06:36;16.00;;;9.30;;
50483;SDS011;36409;52.168;20.878;2023-03-23T07:09:06;17.03;;;9.53;;
50483;SDS011;36409;52.168;20.878;2023-03-23T07:11:35;17.23;;;9.27;;
50483;SDS011;36409;52.168;20.878;2023-03-23T07:14:12;18.13;;;9.40;;
50483;SDS011;36409;52.168;20.878;2023-03-23T07:16:42;17.93;;;9.90;;
50483;SDS011;36409;52.168;20.878;2023-03-23T07:19:11;14.53;;;9.20;;
50483;SDS011;36409;52.168;20.878;2023-03-23T07:21:41;18.70;;;8.80;;
50483;SDS011;36409;52.168;20.878;2023-03-23T07:24:10;15.07;;;9.20;;
50483;SDS011;36409;52.168;20.878;2023-03-23T07:27:06;12.50;;;8.13;;
50483;SDS011;36409;52.168;20.878;2023-03-23T07:29:37;18.30;;;8.90;;
50483;SDS011;36409;52.168;20.878;2023-03-23T07:32:11;15.97;;;8.70;;
50483;SDS011;36409;52.168;20.878;2023-03-23T07:34:42;17.77;;;8.37;;
50483;SDS011;36409;52.168;20.878;2023-03-23T07:37:19;13.47;;;7.87;;
50483;SDS011;36409;52.168;20.878;2023-03-23T07:39:48;12.30;;;7.70;;
50483;SDS011;36409;52.168;20.878;2023-03-23T07:42:17;12.45;;;7.70;;
50483;SDS011;36409;52.168;20.878;2023-03-23T07:44:52;13.67;;;7.87;;
50483;SDS011;36409;52.168;20.878;2023-03-23T07:47:21;19.67;;;8.10;;
50483;SDS011;36409;52.168;20.878;2023-03-23T07:49:50;17.40;;;8.03;;
50483;SDS011;36409;52.168;20.878;2023-03-23T07:52:29;15.60;;;7.37;;
50483;SDS011;36409;52.168;20.878;2023-03-23T07:54:59;13.10;;;7.03;;
50483;SDS011;36409;52.168;20.878;2023-03-23T07:57:52;12.80;;;7.63;;
50483;SDS011;36409;52.168;20.878;2023-03-23T08:00:22;13.47;;;6.90;;
50483;SDS011;36409;52.168;20.878;2023-03-23T08:02:53;11.87;;;7.07;;
50483;SDS011;36409;52.168;20.878;2023-03-23T08:05:32;17.00;;;7.33;;
50483;SDS011;36409;52.168;20.878;2023-03-23T08:08:27;13.87;;;6.90;;
50483;SDS011;36409;52.168;20.878;2023-03-23T08:11:16;11.03;;;6.13;;
50483;SDS011;36409;52.168;20.878;2023-03-23T08:14:05;14.83;;;7.90;;
50483;SDS011;36409;52.168;20.878;2023-03-23T08:17:06;12.60;;;6.63;;
50483;SDS011;36409;52.168;20.878;2023-03-23T08:20:08;20.83;;;6.57;;
50483;SDS011;36409;52.168;20.878;2023-03-23T08:23:07;13.67;;;6.93;;
50483;SDS011;36409;52.168;20.878;2023-03-23T08:25:52;17.23;;;6.73;;
50483;SDS011;36409;52.168;20.878;2023-03-23T08:28:21;14.03;;;6.93;;
50483;SDS011;36409;52.168;20.878;2023-03-23T08:31:06;11.87;;;6.23;;
50483;SDS011;36409;52.168;20.878;2023-03-23T08:33:58;14.50;;;6.47;;
50483;SDS011;36409;52.168;20.878;2023-03-23T08:36:58;10.80;;;5.90;;
50483;SDS011;36409;52.168;20.878;2023-03-23T08:39:51;12.10;;;5.23;;
50483;SDS011;36409;52.168;20.878;2023-03-23T08:42:39;13.17;;;5.90;;
50483;SDS011;36409;52.168;20.878;2023-03-23T08:45:28;12.00;;;5.27;;
50483;SDS011;36409;52.168;20.878;2023-03-23T08:48:28;11.77;;;5.80;;
50483;SDS011;36409;52.168;20.878;2023-03-23T08:51:16;14.90;;;6.93;;
50483;SDS011;36409;52.168;20.878;2023-03-23T08:53:45;14.47;;;5.87;;
50483;SDS011;36409;52.168;20.878;2023-03-23T08:56:43;10.97;;;5.30;;
50483;SDS011;36409;52.168;20.878;2023-03-23T08:59:31;9.37;;;5.53;;
50483;SDS011;36409;52.168;20.878;2023-03-23T09:02:18;9.87;;;5.53;;
50483;SDS011;36409;52.168;20.878;2023-03-23T09:04:54;8.23;;;5.27;;
50483;SDS011;36409;52.168;20.878;2023-03-23T09:07:46;10.37;;;5.67;;
50483;SDS011;36409;52.168;20.878;2023-03-23T09:10:17;11.77;;;4.90;;
50483;SDS011;36409;52.168;20.878;2023-03-23T09:12:47;10.73;;;4.93;;
50483;SDS011;36409;52.168;20.878;2023-03-23T09:15:17;8.40;;;4.90;;
50483;SDS011;36409;52.168;20.878;2023-03-23T09:17:47;7.97;;;4.97;;
50483;SDS011;36409;52.168;20.878;2023-03-23T09:20:17;8.77;;;4.70;;
50483;SDS011;36409;52.168;20.878;2023-03-23T09:22:49;11.67;;;5.03;;
50483;SDS011;36409;52.168;20.878;2023-03-23T09:25:19;11.30;;;5.10;;
50483;SDS011;36409;52.168;20.878;2023-03-23T09:27:49;9.03;;;4.50;;
50483;SDS011;36409;52.168;20.878;2023-03-23T09:30:20;7.63;;;4.60;;
50483;SDS011;36409;52.168;20.878;2023-03-23T09:32:49;7.67;;;3.90;;
50483;SDS011;36409;52.168;20.878;2023-03-23T09:35:18;10.30;;;4.40;;
50483;SDS011;36409;52.168;20.878;2023-03-23T09:37:49;7.20;;;4.10;;
50483;SDS011;36409;52.168;20.878;2023-03-23T09:40:19;7.33;;;4.20;;
50483;SDS011;36409;52.168;20.878;2023-03-23T09:43:04;10.20;;;4.13;;
50483;SDS011;36409;52.168;20.878;2023-03-23T09:45:44;7.10;;;3.83;;
50483;SDS011;36409;52.168;20.878;2023-03-23T09:48:38;12.07;;;4.67;;
50483;SDS011;36409;52.168;20.878;2023-03-23T09:53:49;9.13;;;3.67;;
50483;SDS011;36409;52.168;20.878;2023-03-23T09:56:29;7.97;;;4.22;;
50483;SDS011;36409;52.168;20.878;2023-03-23T09:59:00;11.23;;;3.97;;
50483;SDS011;36409;52.168;20.878;2023-03-23T10:01:36;8.83;;;4.30;;
50483;SDS011;36409;52.168;20.878;2023-03-23T10:04:09;7.80;;;3.70;;
50483;SDS011;36409;52.168;20.878;2023-03-23T10:06:43;10.20;;;3.93;;
50483;SDS011;36409;52.168;20.878;2023-03-23T10:09:18;12.40;;;4.00;;
50483;SDS011;36409;52.168;20.878;2023-03-23T10:11:52;7.57;;;3.83;;
50483;SDS011;36409;52.168;20.878;2023-03-23T10:14:34;10.53;;;4.33;;
50483;SDS011;36409;52.168;20.878;2023-03-23T10:17:13;9.77;;;4.03;;
50483;SDS011;36409;52.168;20.878;2023-03-23T10:19:46;9.53;;;3.93;;
50483;SDS011;36409;52.168;20.878;2023-03-23T10:22:22;8.37;;;4.40;;
50483;SDS011;36409;52.168;20.878;2023-03-23T10:24:57;7.60;;;3.50;;
50483;SDS011;36409;52.168;20.878;2023-03-23T10:27:33;7.20;;;3.67;;
50483;SDS011;36409;52.168;20.878;2023-03-23T10:30:11;13.33;;;3.73;;
50483;SDS011;36409;52.168;20.878;2023-03-23T10:32:48;9.67;;;3.87;;
50483;SDS011;36409;52.168;20.878;2023-03-23T10:35:21;7.22;;;3.35;;
50483;SDS011;36409;52.168;20.878;2023-03-23T10:37:53;8.93;;;3.73;;
50483;SDS011;36409;52.168;20.878;2023-03-23T10:40:25;8.50;;;3.83;;
50483;SDS011;36409;52.168;20.878;2023-03-23T10:42:57;11.43;;;4.07;;
50483;SDS011;36409;52.168;20.878;2023-03-23T10:45:26;10.00;;;4.13;;
50483;SDS011;36409;52.168;20.878;2023-03-23T10:48:03;10.13;;;4.33;;
50483;SDS011;36409;52.168;20.878;2023-03-23T10:50:38;7.07;;;3.80;;
50483;SDS011;36409;52.168;20.878;2023-03-23T10:53:13;6.33;;;3.60;;
50483;SDS011;36409;52.168;20.878;2023-03-23T10:55:46;7.93;;;4.20;;
50483;SDS011;36409;52.168;20.878;2023-03-23T10:58:23;8.80;;;4.37;;
50483;SDS011;36409;52.168;20.878;2023-03-23T11:00:55;8.87;;;4.40;;
50483;SDS011;36409;52.168;20.878;2023-03-23T11:03:27;7.83;;;3.50;;
50483;SDS011;36409;52.168;20.878;2023-03-23T11:06:06;7.10;;;3.80;;
50483;SDS011;36409;52.168;20.878;2023-03-23T11:08:37;9.30;;;4.03;;
50483;SDS011;36409;52.168;20.878;2023-03-23T11:11:17;4.43;;;2.63;;
50483;SDS011;36409;52.168;20.878;2023-03-23T11:13:49;6.20;;;2.23;;
50483;SDS011;36409;52.168;20.878;2023-03-23T11:16:41;6.03;;;1.90;;
50483;SDS011;36409;52.168;20.878;2023-03-23T11:19:12;8.40;;;2.20;;
50483;SDS011;36409;52.168;20.878;2023-03-23T11:21:46;7.43;;;1.67;;
50483;SDS011;36409;52.168;20.878;2023-03-23T11:24:18;3.47;;;1.60;;
50483;SDS011;36409;52.168;20.878;2023-03-23T11:26:49;5.97;;;2.10;;
50483;SDS011;36409;52.168;20.878;2023-03-23T11:29:21;11.80;;;2.90;;
50483;SDS011;36409;52.168;20.878;2023-03-23T11:31:52;4.85;;;2.30;;
50483;SDS011;36409;52.168;20.878;2023-03-23T11:34:34;6.30;;;3.03;;
50483;SDS011;36409;52.168;20.878;2023-03-23T11:37:09;8.37;;;3.00;;
50483;SDS011;36409;52.168;20.878;2023-03-23T11:39:47;6.30;;;2.60;;
50483;SDS011;36409;52.168;20.878;2023-03-23T11:42:22;5.43;;;2.43;;
50483;SDS011;36409;52.168;20.878;2023-03-23T11:44:55;4.40;;;2.37;;
50483;SDS011;36409;52.168;20.878;2023-03-23T11:47:48;8.00;;;2.03;;
50483;SDS011;36409;52.168;20.878;2023-03-23T11:50:24;4.33;;;1.93;;
50483;SDS011;36409;52.168;20.878;2023-03-23T11:53:00;5.57;;;2.10;;
50483;SDS011;36409;52.168;20.878;2023-03-23T11:55:49;4.87;;;1.80;;
50483;SDS011;36409;52.168;20.878;2023-03-23T11:58:23;6.00;;;2.10;;
50483;SDS011;36409;52.168;20.878;2023-03-23T12:00:54;5.13;;;2.10;;
50483;SDS011;36409;52.168;20.878;2023-03-23T12:03:26;3.73;;;1.77;;
50483;SDS011;36409;52.168;20.878;2023-03-23T12:06:07;5.03;;;2.00;;
50483;SDS011;36409;52.168;20.878;2023-03-23T12:08:44;4.27;;;1.87;;
50483;SDS011;36409;52.168;20.878;2023-03-23T12:11:25;6.43;;;1.87;;
50483;SDS011;36409;52.168;20.878;2023-03-23T12:14:03;10.27;;;2.23;;
50483;SDS011;36409;52.168;20.878;2023-03-23T12:16:56;4.70;;;2.30;;
50483;SDS011;36409;52.168;20.878;2023-03-23T12:19:33;11.70;;;2.43;;
50483;SDS011;36409;52.168;20.878;2023-03-23T12:22:12;6.53;;;2.20;;
50483;SDS011;36409;52.168;20.878;2023-03-23T12:24:56;4.87;;;2.60;;
50483;SDS011;36409;52.168;20.878;2023-03-23T12:27:38;7.70;;;2.83;;
50483;SDS011;36409;52.168;20.878;2023-03-23T12:30:26;8.10;;;2.80;;
50483;SDS011;36409;52.168;20.878;2023-03-23T12:33:03;6.37;;;2.63;;
50483;SDS011;36409;52.168;20.878;2023-03-23T12:35:47;7.33;;;3.70;;
50483;SDS011;36409;52.168;20.878;2023-03-23T12:38:26;7.70;;;3.10;;
50483;SDS011;36409;52.168;20.878;2023-03-23T12:41:18;6.77;;;3.40;;
50483;SDS011;36409;52.168;20.878;2023-03-23T12:43:52;7.73;;;3.20;;
50483;SDS011;36409;52.168;20.878;2023-03-23T12:49:09;10.20;;;3.30;;
50483;SDS011;36409;52.168;20.878;2023-03-23T12:51:44;5.93;;;3.43;;
50483;SDS011;36409;52.168;20.878;2023-03-23T12:56:53;8.43;;;3.50;;
50483;SDS011;36409;52.168;20.878;2023-03-23T12:59:32;8.57;;;3.27;;
50483;SDS011;36409;52.168;20.878;2023-03-23T13:02:10;8.03;;;3.63;;
50483;SDS011;36409;52.168;20.878;2023-03-23T13:04:45;6.07;;;3.37;;
50483;SDS011;36409;52.168;20.878;2023-03-23T13:07:28;7.50;;;3.27;;
50483;SDS011;36409;52.168;20.878;2023-03-23T13:10:02;8.33;;;3.33;;
50483;SDS011;36409;52.168;20.878;2023-03-23T13:12:36;5.10;;;2.95;;
50483;SDS011;36409;52.168;20.878;2023-03-23T13:15:10;6.67;;;3.43;;
50483;SDS011;36409;52.168;20.878;2023-03-23T13:17:54;6.90;;;3.67;;
50483;SDS011;36409;52.168;20.878;2023-03-23T13:20:34;7.23;;;3.93;;
50483;SDS011;36409;52.168;20.878;2023-03-23T13:25:46;10.63;;;3.17;;
50483;SDS011;36409;52.168;20.878;2023-03-23T13:30:56;6.57;;;2.80;;
50483;SDS011;36409;52.168;20.878;2023-03-23T13:33:32;7.13;;;3.00;;
50483;SDS011;36409;52.168;20.878;2023-03-23T13:36:03;5.97;;;2.90;;
50483;SDS011;36409;52.168;20.878;2023-03-23T13:38:36;7.67;;;2.87;;
50483;SDS011;36409;52.168;20.878;2023-03-23T13:41:10;13.67;;;3.20;;
50483;SDS011;36409;52.168;20.878;2023-03-23T13:43:41;6.73;;;2.50;;
50483;SDS011;36409;52.168;20.878;2023-03-23T13:46:13;6.10;;;2.47;;
50483;SDS011;36409;52.168;20.878;2023-03-23T13:49:15;8.20;;;2.67;;
50483;SDS011;36409;52.168;20.878;2023-03-23T13:51:53;8.87;;;3.27;;
50483;SDS011;36409;52.168;20.878;2023-03-23T13:54:40;6.40;;;2.60;;
50483;SDS011;36409;52.168;20.878;2023-03-23T14:00:24;9.40;;;3.00;;
50483;SDS011;36409;52.168;20.878;2023-03-23T14:03:13;8.77;;;2.33;;
50483;SDS011;36409;52.168;20.878;2023-03-23T14:05:49;7.17;;;3.00;;
50483;SDS011;36409;52.168;20.878;2023-03-23T14:08:37;6.63;;;2.90;;
50483;SDS011;36409;52.168;20.878;2023-03-23T14:11:13;10.67;;;3.00;;
50483;SDS011;36409;52.168;20.878;2023-03-23T14:13:45;7.47;;;2.97;;
50483;SDS011;36409;52.168;20.878;2023-03-23T14:16:20;5.37;;;2.33;;
50483;SDS011;36409;52.168;20.878;2023-03-23T14:19:12;6.27;;;3.20;;
50483;SDS011;36409;52.168;20.878;2023-03-23T14:21:49;5.50;;;3.20;;
50483;SDS011;36409;52.168;20.878;2023-03-23T14:24:20;5.90;;;3.20;;
50483;SDS011;36409;52.168;20.878;2023-03-23T14:26:51;6.23;;;2.73;;
50483;SDS011;36409;52.168;20.878;2023-03-23T14:29:29;10.10;;;3.23;;
50483;SDS011;36409;52.168;20.878;2023-03-23T14:31:58;9.17;;;2.40;;
50483;SDS011;36409;52.168;20.878;2023-03-23T14:34:32;6.77;;;2.83;;
50483;SDS011;36409;52.168;20.878;2023-03-23T14:37:05;6.70;;;2.87;;
50483;SDS011;36409;52.168;20.878;2023-03-23T14:39:44;10.60;;;3.03;;
50483;SDS011;36409;52.168;20.878;2023-03-23T14:42:15;5.23;;;2.93;;
50483;SDS011;36409;52.168;20.878;2023-03-23T14:44:48;5.83;;;3.00;;
50483;SDS011;36409;52.168;20.878;2023-03-23T14:47:21;6.97;;;2.93;;
50483;SDS011;36409;52.168;20.878;2023-03-23T14:49:53;5.37;;;2.67;;
50483;SDS011;36409;52.168;20.878;2023-03-23T14:52:23;4.90;;;2.97;;
50483;SDS011;36409;52.168;20.878;2023-03-23T14:54:54;12.17;;;3.73;;
50483;SDS011;36409;52.168;20.878;2023-03-23T14:57:34;6.20;;;3.30;;
50483;SDS011;36409;52.168;20.878;2023-03-23T15:00:13;10.30;;;3.72;;
50483;SDS011;36409;52.168;20.878;2023-03-23T15:02:44;10.57;;;5.50;;
50483;SDS011;36409;52.168;20.878;2023-03-23T15:05:19;21.33;;;4.43;;
50483;SDS011;36409;52.168;20.878;2023-03-23T15:07:50;10.23;;;4.37;;
50483;SDS011;36409;52.168;20.878;2023-03-23T15:10:22;10.93;;;4.57;;
50483;SDS011;36409;52.168;20.878;2023-03-23T15:12:51;12.90;;;5.40;;
50483;SDS011;36409;52.168;20.878;2023-03-23T15:15:25;17.80;;;14.13;;
50483;SDS011;36409;52.168;20.878;2023-03-23T15:17:56;15.57;;;12.67;;
50483;SDS011;36409;52.168;20.878;2023-03-23T15:20:27;21.83;;;16.73;;
50483;SDS011;36409;52.168;20.878;2023-03-23T15:23:04;15.80;;;10.87;;
50483;SDS011;36409;52.168;20.878;2023-03-23T15:25:34;12.87;;;9.63;;
50483;SDS011;36409;52.168;20.878;2023-03-23T15:28:14;10.40;;;6.30;;